sensor_id;sensor_type;location;lat;lon;timestamp;P1;durP1;ratioP1;P2;durP2;ratioP2
70592;SDS011;58294;42.988;20.338;2023-07-29T00:00:56;11.65;;;8.13;;
70592;SDS011;58294;42.988;20.338;2023-07-29T00:03:22;11.05;;;7.13;;
70592;SDS011;58294;42.988;20.338;2023-07-29T00:05:48;9.57;;;7.45;;
70592;SDS011;58294;42.988;20.338;2023-07-29T00:08:14;9.63;;;7.25;;
70592;SDS011;58294;42.988;20.338;2023-07-29T00:10:40;8.52;;;6.80;;
70592;SDS011;58294;42.988;20.338;2023-07-29T00:13:07;8.23;;;6.43;;
70592;SDS011;58294;42.988;20.338;2023-07-29T00:15:33;11.82;;;6.75;;
70592;SDS011;58294;42.988;20.338;2023-07-29T00:17:59;8.43;;;6.82;;
70592;SDS011;58294;42.988;20.338;2023-07-29T00:20:25;10.55;;;6.28;;
70592;SDS011;58294;42.988;20.338;2023-07-29T00:22:51;7.72;;;5.85;;
70592;SDS011;58294;42.988;20.338;2023-07-29T00:25:19;6.10;;;5.50;;
70592;SDS011;58294;42.988;20.338;2023-07-29T00:27:45;8.55;;;6.10;;
70592;SDS011;58294;42.988;20.338;2023-07-29T00:30:11;7.05;;;6.35;;
70592;SDS011;58294;42.988;20.338;2023-07-29T00:32:37;8.27;;;6.75;;
70592;SDS011;58294;42.988;20.338;2023-07-29T00:35:03;7.40;;;6.38;;
70592;SDS011;58294;42.988;20.338;2023-07-29T00:37:29;8.85;;;7.15;;
70592;SDS011;58294;42.988;20.338;2023-07-29T00:39:56;10.88;;;6.97;;
70592;SDS011;58294;42.988;20.338;2023-07-29T00:42:23;9.45;;;5.75;;
70592;SDS011;58294;42.988;20.338;2023-07-29T00:44:49;7.47;;;6.65;;
70592;SDS011;58294;42.988;20.338;2023-07-29T00:47:15;8.13;;;5.72;;
70592;SDS011;58294;42.988;20.338;2023-07-29T00:49:44;10.80;;;6.60;;
70592;SDS011;58294;42.988;20.338;2023-07-29T00:52:10;9.60;;;6.88;;
70592;SDS011;58294;42.988;20.338;2023-07-29T00:54:40;9.57;;;6.00;;
70592;SDS011;58294;42.988;20.338;2023-07-29T00:57:06;7.68;;;6.82;;
70592;SDS011;58294;42.988;20.338;2023-07-29T00:59:35;8.13;;;6.32;;
70592;SDS011;58294;42.988;20.338;2023-07-29T01:02:02;10.65;;;6.20;;
70592;SDS011;58294;42.988;20.338;2023-07-29T01:04:28;7.68;;;6.63;;
70592;SDS011;58294;42.988;20.338;2023-07-29T01:06:58;10.85;;;6.65;;
70592;SDS011;58294;42.988;20.338;2023-07-29T01:09:44;42.25;;;13.40;;
70592;SDS011;58294;42.988;20.338;2023-07-29T01:12:21;8.43;;;6.57;;
70592;SDS011;58294;42.988;20.338;2023-07-29T01:17:52;9.40;;;7.82;;
70592;SDS011;58294;42.988;20.338;2023-07-29T01:20:20;9.77;;;6.78;;
70592;SDS011;58294;42.988;20.338;2023-07-29T01:22:49;7.43;;;6.00;;
70592;SDS011;58294;42.988;20.338;2023-07-29T01:25:15;6.50;;;5.65;;
70592;SDS011;58294;42.988;20.338;2023-07-29T01:27:42;7.90;;;6.40;;
70592;SDS011;58294;42.988;20.338;2023-07-29T01:30:08;9.00;;;8.07;;
70592;SDS011;58294;42.988;20.338;2023-07-29T01:35:10;7.50;;;6.35;;
70592;SDS011;58294;42.988;20.338;2023-07-29T01:37:44;9.25;;;6.07;;
70592;SDS011;58294;42.988;20.338;2023-07-29T01:40:14;8.40;;;6.47;;
70592;SDS011;58294;42.988;20.338;2023-07-29T01:42:41;8.98;;;6.20;;
70592;SDS011;58294;42.988;20.338;2023-07-29T01:45:07;7.65;;;6.82;;
70592;SDS011;58294;42.988;20.338;2023-07-29T01:47:33;8.98;;;6.60;;
70592;SDS011;58294;42.988;20.338;2023-07-29T01:49:59;9.02;;;6.80;;
70592;SDS011;58294;42.988;20.338;2023-07-29T01:52:24;11.25;;;8.95;;
70592;SDS011;58294;42.988;20.338;2023-07-29T01:54:50;10.88;;;7.10;;
70592;SDS011;58294;42.988;20.338;2023-07-29T01:57:16;12.18;;;7.85;;
70592;SDS011;58294;42.988;20.338;2023-07-29T01:59:42;7.93;;;6.70;;
70592;SDS011;58294;42.988;20.338;2023-07-29T02:02:07;9.23;;;6.38;;
70592;SDS011;58294;42.988;20.338;2023-07-29T02:04:33;7.90;;;6.72;;
70592;SDS011;58294;42.988;20.338;2023-07-29T02:06:59;8.20;;;6.05;;
70592;SDS011;58294;42.988;20.338;2023-07-29T02:09:25;10.55;;;8.32;;
70592;SDS011;58294;42.988;20.338;2023-07-29T02:11:51;10.85;;;7.95;;
70592;SDS011;58294;42.988;20.338;2023-07-29T02:14:16;9.80;;;7.10;;
70592;SDS011;58294;42.988;20.338;2023-07-29T02:16:42;8.20;;;7.25;;
70592;SDS011;58294;42.988;20.338;2023-07-29T02:19:08;9.15;;;7.10;;
70592;SDS011;58294;42.988;20.338;2023-07-29T02:21:34;8.82;;;6.13;;
70592;SDS011;58294;42.988;20.338;2023-07-29T02:24:00;6.82;;;6.03;;
70592;SDS011;58294;42.988;20.338;2023-07-29T02:26:25;7.97;;;5.97;;
70592;SDS011;58294;42.988;20.338;2023-07-29T02:28:51;11.23;;;6.35;;
70592;SDS011;58294;42.988;20.338;2023-07-29T02:31:21;7.05;;;6.35;;
70592;SDS011;58294;42.988;20.338;2023-07-29T02:33:48;6.70;;;5.93;;
70592;SDS011;58294;42.988;20.338;2023-07-29T02:36:14;7.40;;;6.07;;
70592;SDS011;58294;42.988;20.338;2023-07-29T02:38:41;7.35;;;6.25;;
70592;SDS011;58294;42.988;20.338;2023-07-29T02:41:10;6.95;;;5.75;;
70592;SDS011;58294;42.988;20.338;2023-07-29T02:43:38;11.48;;;6.38;;
70592;SDS011;58294;42.988;20.338;2023-07-29T02:46:05;7.53;;;6.55;;
70592;SDS011;58294;42.988;20.338;2023-07-29T02:48:30;9.57;;;6.53;;
70592;SDS011;58294;42.988;20.338;2023-07-29T02:50:56;6.90;;;6.20;;
70592;SDS011;58294;42.988;20.338;2023-07-29T02:53:22;6.53;;;5.88;;
70592;SDS011;58294;42.988;20.338;2023-07-29T02:55:48;7.15;;;5.97;;
70592;SDS011;58294;42.988;20.338;2023-07-29T02:58:14;8.95;;;6.25;;
70592;SDS011;58294;42.988;20.338;2023-07-29T03:00:40;7.90;;;6.35;;
70592;SDS011;58294;42.988;20.338;2023-07-29T03:03:10;8.15;;;5.70;;
70592;SDS011;58294;42.988;20.338;2023-07-29T03:05:35;8.30;;;5.95;;
70592;SDS011;58294;42.988;20.338;2023-07-29T03:08:02;11.43;;;6.40;;
70592;SDS011;58294;42.988;20.338;2023-07-29T03:10:28;6.70;;;5.75;;
70592;SDS011;58294;42.988;20.338;2023-07-29T03:12:54;6.05;;;5.45;;
70592;SDS011;58294;42.988;20.338;2023-07-29T03:15:23;7.78;;;6.18;;
70592;SDS011;58294;42.988;20.338;2023-07-29T03:17:50;9.82;;;6.43;;
70592;SDS011;58294;42.988;20.338;2023-07-29T03:20:16;7.78;;;6.00;;
70592;SDS011;58294;42.988;20.338;2023-07-29T03:22:45;6.55;;;5.63;;
70592;SDS011;58294;42.988;20.338;2023-07-29T03:25:11;9.82;;;6.00;;
70592;SDS011;58294;42.988;20.338;2023-07-29T03:27:37;7.35;;;5.82;;
70592;SDS011;58294;42.988;20.338;2023-07-29T03:30:05;7.97;;;5.70;;
70592;SDS011;58294;42.988;20.338;2023-07-29T03:32:31;9.25;;;5.82;;
70592;SDS011;58294;42.988;20.338;2023-07-29T03:34:57;6.40;;;5.80;;
70592;SDS011;58294;42.988;20.338;2023-07-29T03:37:23;6.95;;;5.28;;
70592;SDS011;58294;42.988;20.338;2023-07-29T03:39:49;7.38;;;5.75;;
70592;SDS011;58294;42.988;20.338;2023-07-29T03:42:17;6.95;;;6.18;;
70592;SDS011;58294;42.988;20.338;2023-07-29T03:44:43;9.38;;;6.55;;
70592;SDS011;58294;42.988;20.338;2023-07-29T03:47:08;7.50;;;6.15;;
70592;SDS011;58294;42.988;20.338;2023-07-29T03:49:34;6.90;;;5.28;;
70592;SDS011;58294;42.988;20.338;2023-07-29T03:52:00;6.55;;;5.80;;
70592;SDS011;58294;42.988;20.338;2023-07-29T03:54:26;7.88;;;5.40;;
70592;SDS011;58294;42.988;20.338;2023-07-29T03:56:51;6.40;;;5.80;;
70592;SDS011;58294;42.988;20.338;2023-07-29T03:59:17;9.30;;;6.32;;
70592;SDS011;58294;42.988;20.338;2023-07-29T04:01:43;6.47;;;5.88;;
70592;SDS011;58294;42.988;20.338;2023-07-29T04:04:09;6.53;;;5.65;;
70592;SDS011;58294;42.988;20.338;2023-07-29T04:06:35;9.50;;;6.35;;
70592;SDS011;58294;42.988;20.338;2023-07-29T04:09:00;10.27;;;6.07;;
70592;SDS011;58294;42.988;20.338;2023-07-29T04:11:26;7.25;;;6.20;;
70592;SDS011;58294;42.988;20.338;2023-07-29T04:13:52;10.02;;;6.43;;
70592;SDS011;58294;42.988;20.338;2023-07-29T04:16:18;7.45;;;6.18;;
70592;SDS011;58294;42.988;20.338;2023-07-29T04:18:44;6.88;;;6.18;;
70592;SDS011;58294;42.988;20.338;2023-07-29T04:21:10;7.47;;;6.43;;
70592;SDS011;58294;42.988;20.338;2023-07-29T04:23:36;8.25;;;6.57;;
70592;SDS011;58294;42.988;20.338;2023-07-29T04:26:02;7.75;;;6.25;;
70592;SDS011;58294;42.988;20.338;2023-07-29T04:28:28;6.80;;;6.10;;
70592;SDS011;58294;42.988;20.338;2023-07-29T04:30:53;6.68;;;6.07;;
70592;SDS011;58294;42.988;20.338;2023-07-29T04:33:20;11.45;;;7.25;;
70592;SDS011;58294;42.988;20.338;2023-07-29T04:35:46;8.30;;;6.40;;
70592;SDS011;58294;42.988;20.338;2023-07-29T04:38:11;8.55;;;6.35;;
70592;SDS011;58294;42.988;20.338;2023-07-29T04:40:37;7.05;;;6.03;;
70592;SDS011;58294;42.988;20.338;2023-07-29T04:43:03;6.72;;;5.95;;
70592;SDS011;58294;42.988;20.338;2023-07-29T04:45:29;8.70;;;6.70;;
70592;SDS011;58294;42.988;20.338;2023-07-29T04:47:55;8.82;;;7.05;;
70592;SDS011;58294;42.988;20.338;2023-07-29T04:50:22;10.77;;;6.20;;
70592;SDS011;58294;42.988;20.338;2023-07-29T04:52:47;10.25;;;6.03;;
70592;SDS011;58294;42.988;20.338;2023-07-29T04:55:13;7.13;;;5.60;;
70592;SDS011;58294;42.988;20.338;2023-07-29T04:57:39;9.98;;;6.68;;
70592;SDS011;58294;42.988;20.338;2023-07-29T05:00:05;7.55;;;6.40;;
70592;SDS011;58294;42.988;20.338;2023-07-29T05:02:31;10.30;;;6.90;;
70592;SDS011;58294;42.988;20.338;2023-07-29T05:04:57;9.80;;;6.45;;
70592;SDS011;58294;42.988;20.338;2023-07-29T05:07:23;16.73;;;8.13;;
70592;SDS011;58294;42.988;20.338;2023-07-29T05:09:48;8.68;;;6.10;;
70592;SDS011;58294;42.988;20.338;2023-07-29T05:12:14;8.80;;;6.32;;
70592;SDS011;58294;42.988;20.338;2023-07-29T05:14:40;7.70;;;6.80;;
70592;SDS011;58294;42.988;20.338;2023-07-29T05:17:06;8.15;;;7.32;;
70592;SDS011;58294;42.988;20.338;2023-07-29T05:19:31;7.38;;;6.30;;
70592;SDS011;58294;42.988;20.338;2023-07-29T05:21:57;7.22;;;5.95;;
70592;SDS011;58294;42.988;20.338;2023-07-29T05:24:23;7.18;;;6.35;;
70592;SDS011;58294;42.988;20.338;2023-07-29T05:26:49;9.13;;;6.93;;
70592;SDS011;58294;42.988;20.338;2023-07-29T05:29:15;7.55;;;5.97;;
70592;SDS011;58294;42.988;20.338;2023-07-29T05:31:40;8.02;;;6.25;;
70592;SDS011;58294;42.988;20.338;2023-07-29T05:34:06;9.93;;;7.15;;
70592;SDS011;58294;42.988;20.338;2023-07-29T05:36:32;8.77;;;7.70;;
70592;SDS011;58294;42.988;20.338;2023-07-29T05:38:58;9.75;;;8.35;;
70592;SDS011;58294;42.988;20.338;2023-07-29T05:41:24;13.77;;;8.52;;
70592;SDS011;58294;42.988;20.338;2023-07-29T05:43:52;10.02;;;8.55;;
70592;SDS011;58294;42.988;20.338;2023-07-29T05:46:18;9.27;;;7.15;;
70592;SDS011;58294;42.988;20.338;2023-07-29T05:48:44;9.15;;;8.05;;
70592;SDS011;58294;42.988;20.338;2023-07-29T05:51:09;8.35;;;7.32;;
70592;SDS011;58294;42.988;20.338;2023-07-29T05:53:35;8.45;;;7.53;;
70592;SDS011;58294;42.988;20.338;2023-07-29T05:56:01;8.00;;;7.20;;
70592;SDS011;58294;42.988;20.338;2023-07-29T05:58:27;8.52;;;6.85;;
70592;SDS011;58294;42.988;20.338;2023-07-29T06:00:56;10.63;;;7.43;;
70592;SDS011;58294;42.988;20.338;2023-07-29T06:03:22;10.02;;;6.68;;
70592;SDS011;58294;42.988;20.338;2023-07-29T06:05:48;13.50;;;8.63;;
70592;SDS011;58294;42.988;20.338;2023-07-29T06:08:15;11.23;;;7.45;;
70592;SDS011;58294;42.988;20.338;2023-07-29T06:10:40;11.05;;;7.90;;
70592;SDS011;58294;42.988;20.338;2023-07-29T06:13:06;13.63;;;8.02;;
70592;SDS011;58294;42.988;20.338;2023-07-29T06:15:32;13.13;;;8.43;;
70592;SDS011;58294;42.988;20.338;2023-07-29T06:17:58;11.38;;;7.47;;
70592;SDS011;58294;42.988;20.338;2023-07-29T06:20:24;12.43;;;8.57;;
70592;SDS011;58294;42.988;20.338;2023-07-29T06:22:49;12.25;;;8.70;;
70592;SDS011;58294;42.988;20.338;2023-07-29T06:25:15;9.38;;;7.70;;
70592;SDS011;58294;42.988;20.338;2023-07-29T06:27:41;9.07;;;7.68;;
70592;SDS011;58294;42.988;20.338;2023-07-29T06:30:07;8.43;;;7.53;;
70592;SDS011;58294;42.988;20.338;2023-07-29T06:32:33;13.80;;;8.63;;
70592;SDS011;58294;42.988;20.338;2023-07-29T06:34:59;7.82;;;6.82;;
70592;SDS011;58294;42.988;20.338;2023-07-29T06:37:25;9.88;;;7.60;;
70592;SDS011;58294;42.988;20.338;2023-07-29T06:39:51;7.68;;;6.85;;
70592;SDS011;58294;42.988;20.338;2023-07-29T06:42:17;11.10;;;8.00;;
70592;SDS011;58294;42.988;20.338;2023-07-29T06:44:42;9.43;;;7.38;;
70592;SDS011;58294;42.988;20.338;2023-07-29T06:47:10;9.43;;;7.75;;
70592;SDS011;58294;42.988;20.338;2023-07-29T06:49:36;11.90;;;8.10;;
70592;SDS011;58294;42.988;20.338;2023-07-29T06:52:02;12.80;;;8.85;;
70592;SDS011;58294;42.988;20.338;2023-07-29T06:54:28;9.07;;;7.93;;
70592;SDS011;58294;42.988;20.338;2023-07-29T06:56:54;13.88;;;7.82;;
70592;SDS011;58294;42.988;20.338;2023-07-29T06:59:20;12.02;;;8.20;;
70592;SDS011;58294;42.988;20.338;2023-07-29T07:01:46;10.45;;;7.43;;
70592;SDS011;58294;42.988;20.338;2023-07-29T07:04:12;9.63;;;7.60;;
70592;SDS011;58294;42.988;20.338;2023-07-29T07:06:37;15.82;;;14.23;;
70592;SDS011;58294;42.988;20.338;2023-07-29T07:09:03;11.13;;;9.50;;
70592;SDS011;58294;42.988;20.338;2023-07-29T07:11:29;9.18;;;7.38;;
70592;SDS011;58294;42.988;20.338;2023-07-29T07:13:55;8.88;;;7.05;;
70592;SDS011;58294;42.988;20.338;2023-07-29T07:16:21;12.63;;;6.65;;
70592;SDS011;58294;42.988;20.338;2023-07-29T07:18:46;10.00;;;7.45;;
70592;SDS011;58294;42.988;20.338;2023-07-29T07:21:12;12.07;;;7.20;;
70592;SDS011;58294;42.988;20.338;2023-07-29T07:23:38;6.93;;;6.20;;
70592;SDS011;58294;42.988;20.338;2023-07-29T07:26:04;7.75;;;6.95;;
70592;SDS011;58294;42.988;20.338;2023-07-29T07:28:30;8.70;;;7.47;;
70592;SDS011;58294;42.988;20.338;2023-07-29T07:30:56;8.00;;;6.95;;
70592;SDS011;58294;42.988;20.338;2023-07-29T07:33:22;8.75;;;7.05;;
70592;SDS011;58294;42.988;20.338;2023-07-29T07:35:48;8.95;;;7.55;;
70592;SDS011;58294;42.988;20.338;2023-07-29T07:38:14;10.48;;;8.23;;
70592;SDS011;58294;42.988;20.338;2023-07-29T07:40:40;24.35;;;11.18;;
70592;SDS011;58294;42.988;20.338;2023-07-29T07:43:06;9.25;;;7.05;;
70592;SDS011;58294;42.988;20.338;2023-07-29T07:45:32;7.90;;;6.30;;
70592;SDS011;58294;42.988;20.338;2023-07-29T07:47:58;6.72;;;6.03;;
70592;SDS011;58294;42.988;20.338;2023-07-29T07:50:24;8.95;;;7.07;;
70592;SDS011;58294;42.988;20.338;2023-07-29T07:52:50;13.63;;;8.02;;
70592;SDS011;58294;42.988;20.338;2023-07-29T07:55:16;9.27;;;7.38;;
70592;SDS011;58294;42.988;20.338;2023-07-29T07:57:42;7.13;;;6.28;;
70592;SDS011;58294;42.988;20.338;2023-07-29T08:00:08;6.10;;;5.10;;
70592;SDS011;58294;42.988;20.338;2023-07-29T08:02:34;7.30;;;5.28;;
70592;SDS011;58294;42.988;20.338;2023-07-29T08:05:00;9.82;;;6.10;;
70592;SDS011;58294;42.988;20.338;2023-07-29T08:07:26;7.10;;;6.40;;
70592;SDS011;58294;42.988;20.338;2023-07-29T08:09:52;7.72;;;5.65;;
70592;SDS011;58294;42.988;20.338;2023-07-29T08:12:18;6.57;;;4.70;;
70592;SDS011;58294;42.988;20.338;2023-07-29T08:14:44;6.85;;;4.80;;
70592;SDS011;58294;42.988;20.338;2023-07-29T08:17:10;7.40;;;4.80;;
70592;SDS011;58294;42.988;20.338;2023-07-29T08:19:36;6.00;;;5.40;;
70592;SDS011;58294;42.988;20.338;2023-07-29T08:22:02;5.15;;;4.65;;
70592;SDS011;58294;42.988;20.338;2023-07-29T08:24:29;10.85;;;6.05;;
70592;SDS011;58294;42.988;20.338;2023-07-29T08:26:54;6.75;;;4.70;;
70592;SDS011;58294;42.988;20.338;2023-07-29T08:29:20;5.75;;;4.93;;
70592;SDS011;58294;42.988;20.338;2023-07-29T08:31:46;8.70;;;4.97;;
70592;SDS011;58294;42.988;20.338;2023-07-29T08:34:12;5.22;;;4.65;;
70592;SDS011;58294;42.988;20.338;2023-07-29T08:36:38;7.03;;;4.55;;
70592;SDS011;58294;42.988;20.338;2023-07-29T08:39:03;6.30;;;4.82;;
70592;SDS011;58294;42.988;20.338;2023-07-29T08:41:31;6.85;;;5.00;;
70592;SDS011;58294;42.988;20.338;2023-07-29T08:44:21;7.57;;;5.07;;
70592;SDS011;58294;42.988;20.338;2023-07-29T08:46:51;5.15;;;4.32;;
70592;SDS011;58294;42.988;20.338;2023-07-29T08:49:19;9.07;;;4.63;;
70592;SDS011;58294;42.988;20.338;2023-07-29T08:51:48;4.75;;;4.35;;
70592;SDS011;58294;42.988;20.338;2023-07-29T08:54:14;9.77;;;5.05;;
70592;SDS011;58294;42.988;20.338;2023-07-29T08:56:41;23.92;;;8.43;;
70592;SDS011;58294;42.988;20.338;2023-07-29T08:59:10;5.78;;;4.30;;
70592;SDS011;58294;42.988;20.338;2023-07-29T09:01:40;5.28;;;4.20;;
70592;SDS011;58294;42.988;20.338;2023-07-29T09:04:07;5.07;;;4.57;;
70592;SDS011;58294;42.988;20.338;2023-07-29T09:06:32;5.97;;;4.78;;
70592;SDS011;58294;42.988;20.338;2023-07-29T09:09:00;4.93;;;4.38;;
70592;SDS011;58294;42.988;20.338;2023-07-29T09:11:27;4.32;;;3.92;;
70592;SDS011;58294;42.988;20.338;2023-07-29T09:13:53;5.47;;;4.53;;
70592;SDS011;58294;42.988;20.338;2023-07-29T09:16:22;8.27;;;5.07;;
70592;SDS011;58294;42.988;20.338;2023-07-29T09:18:48;5.15;;;4.65;;
70592;SDS011;58294;42.988;20.338;2023-07-29T09:21:17;5.47;;;4.53;;
70592;SDS011;58294;42.988;20.338;2023-07-29T09:23:51;6.53;;;4.22;;
70592;SDS011;58294;42.988;20.338;2023-07-29T09:26:27;5.00;;;4.50;;
70592;SDS011;58294;42.988;20.338;2023-07-29T09:28:53;7.43;;;4.50;;
70592;SDS011;58294;42.988;20.338;2023-07-29T09:31:24;5.55;;;4.40;;
70592;SDS011;58294;42.988;20.338;2023-07-29T09:34:01;4.47;;;4.07;;
70592;SDS011;58294;42.988;20.338;2023-07-29T09:36:30;8.43;;;4.18;;
70592;SDS011;58294;42.988;20.338;2023-07-29T09:38:56;5.68;;;4.32;;
70592;SDS011;58294;42.988;20.338;2023-07-29T09:41:24;5.35;;;4.85;;
70592;SDS011;58294;42.988;20.338;2023-07-29T09:43:57;4.53;;;4.13;;
70592;SDS011;58294;42.988;20.338;2023-07-29T09:46:23;5.40;;;4.90;;
70592;SDS011;58294;42.988;20.338;2023-07-29T09:48:52;5.15;;;4.65;;
70592;SDS011;58294;42.988;20.338;2023-07-29T09:51:21;9.50;;;8.60;;
70592;SDS011;58294;42.988;20.338;2023-07-29T09:53:48;7.95;;;5.50;;
70592;SDS011;58294;42.988;20.338;2023-07-29T09:56:16;5.20;;;4.70;;
70592;SDS011;58294;42.988;20.338;2023-07-29T09:58:45;9.43;;;7.55;;
70592;SDS011;58294;42.988;20.338;2023-07-29T10:01:13;9.90;;;8.18;;
70592;SDS011;58294;42.988;20.338;2023-07-29T10:03:39;7.07;;;6.30;;
70592;SDS011;58294;42.988;20.338;2023-07-29T10:06:06;6.72;;;5.97;;
70592;SDS011;58294;42.988;20.338;2023-07-29T10:08:33;8.18;;;6.82;;
70592;SDS011;58294;42.988;20.338;2023-07-29T10:11:04;7.70;;;5.97;;
70592;SDS011;58294;42.988;20.338;2023-07-29T10:13:32;5.72;;;5.20;;
70592;SDS011;58294;42.988;20.338;2023-07-29T10:15:59;5.78;;;5.28;;
70592;SDS011;58294;42.988;20.338;2023-07-29T10:18:27;8.73;;;6.10;;
70592;SDS011;58294;42.988;20.338;2023-07-29T10:20:54;7.88;;;6.47;;
70592;SDS011;58294;42.988;20.338;2023-07-29T10:23:22;7.13;;;5.05;;
70592;SDS011;58294;42.988;20.338;2023-07-29T10:25:54;5.75;;;4.90;;
70592;SDS011;58294;42.988;20.338;2023-07-29T10:28:44;5.93;;;5.20;;
70592;SDS011;58294;42.988;20.338;2023-07-29T10:31:12;10.50;;;4.82;;
70592;SDS011;58294;42.988;20.338;2023-07-29T10:33:41;7.70;;;5.15;;
70592;SDS011;58294;42.988;20.338;2023-07-29T10:36:06;5.25;;;4.82;;
70592;SDS011;58294;42.988;20.338;2023-07-29T10:38:33;5.47;;;4.97;;
70592;SDS011;58294;42.988;20.338;2023-07-29T10:41:00;5.35;;;4.85;;
70592;SDS011;58294;42.988;20.338;2023-07-29T10:43:38;5.93;;;5.32;;
70592;SDS011;58294;42.988;20.338;2023-07-29T10:48:45;10.48;;;6.47;;
70592;SDS011;58294;42.988;20.338;2023-07-29T10:51:23;17.45;;;7.20;;
70592;SDS011;58294;42.988;20.338;2023-07-29T10:54:04;7.55;;;4.38;;
70592;SDS011;58294;42.988;20.338;2023-07-29T10:56:35;5.18;;;4.68;;
70592;SDS011;58294;42.988;20.338;2023-07-29T11:01:38;7.55;;;5.20;;
70592;SDS011;58294;42.988;20.338;2023-07-29T11:20:05;10.32;;;5.40;;
70592;SDS011;58294;42.988;20.338;2023-07-29T11:22:35;5.03;;;4.30;;
70592;SDS011;58294;42.988;20.338;2023-07-29T11:25:02;6.28;;;4.65;;
70592;SDS011;58294;42.988;20.338;2023-07-29T11:27:30;6.00;;;4.80;;
70592;SDS011;58294;42.988;20.338;2023-07-29T11:29:59;9.98;;;4.82;;
70592;SDS011;58294;42.988;20.338;2023-07-29T11:32:30;5.15;;;4.60;;
70592;SDS011;58294;42.988;20.338;2023-07-29T11:35:00;5.47;;;4.28;;
70592;SDS011;58294;42.988;20.338;2023-07-29T11:37:26;6.25;;;4.90;;
70592;SDS011;58294;42.988;20.338;2023-07-29T11:39:52;4.75;;;4.35;;
70592;SDS011;58294;42.988;20.338;2023-07-29T11:42:18;4.72;;;4.32;;
70592;SDS011;58294;42.988;20.338;2023-07-29T11:44:45;7.82;;;4.55;;
70592;SDS011;58294;42.988;20.338;2023-07-29T11:47:11;5.88;;;4.45;;
70592;SDS011;58294;42.988;20.338;2023-07-29T11:49:40;5.10;;;4.13;;
70592;SDS011;58294;42.988;20.338;2023-07-29T11:52:10;4.22;;;3.83;;
70592;SDS011;58294;42.988;20.338;2023-07-29T11:54:36;5.40;;;4.05;;
70592;SDS011;58294;42.988;20.338;2023-07-29T11:57:05;5.85;;;5.25;;
70592;SDS011;58294;42.988;20.338;2023-07-29T11:59:33;4.88;;;4.38;;
70592;SDS011;58294;42.988;20.338;2023-07-29T12:02:08;5.78;;;5.18;;
70592;SDS011;58294;42.988;20.338;2023-07-29T12:04:37;8.52;;;4.65;;
70592;SDS011;58294;42.988;20.338;2023-07-29T12:07:04;5.47;;;4.72;;
70592;SDS011;58294;42.988;20.338;2023-07-29T12:09:30;4.38;;;3.97;;
70592;SDS011;58294;42.988;20.338;2023-07-29T12:11:56;5.53;;;4.55;;
70592;SDS011;58294;42.988;20.338;2023-07-29T12:14:30;5.13;;;4.07;;
70592;SDS011;58294;42.988;20.338;2023-07-29T12:19:30;5.43;;;4.18;;
70592;SDS011;58294;42.988;20.338;2023-07-29T12:22:03;5.13;;;3.78;;
70592;SDS011;58294;42.988;20.338;2023-07-29T12:24:30;7.03;;;3.92;;
70592;SDS011;58294;42.988;20.338;2023-07-29T12:26:57;12.02;;;5.10;;
70592;SDS011;58294;42.988;20.338;2023-07-29T12:29:23;7.82;;;5.97;;
70592;SDS011;58294;42.988;20.338;2023-07-29T12:31:56;5.53;;;5.03;;
70592;SDS011;58294;42.988;20.338;2023-07-29T12:34:24;5.88;;;4.68;;
70592;SDS011;58294;42.988;20.338;2023-07-29T12:36:51;5.18;;;4.68;;
70592;SDS011;58294;42.988;20.338;2023-07-29T12:39:19;4.32;;;3.85;;
70592;SDS011;58294;42.988;20.338;2023-07-29T12:41:50;6.15;;;4.63;;
70592;SDS011;58294;42.988;20.338;2023-07-29T12:44:16;5.82;;;4.55;;
70592;SDS011;58294;42.988;20.338;2023-07-29T12:46:43;5.43;;;4.40;;
70592;SDS011;58294;42.988;20.338;2023-07-29T12:49:09;5.28;;;4.30;;
70592;SDS011;58294;42.988;20.338;2023-07-29T12:51:35;13.68;;;6.05;;
70592;SDS011;58294;42.988;20.338;2023-07-29T12:54:02;6.10;;;4.63;;
70592;SDS011;58294;42.988;20.338;2023-07-29T12:56:29;4.55;;;4.15;;
70592;SDS011;58294;42.988;20.338;2023-07-29T12:58:56;5.22;;;4.18;;
70592;SDS011;58294;42.988;20.338;2023-07-29T13:01:23;7.32;;;4.57;;
70592;SDS011;58294;42.988;20.338;2023-07-29T13:03:50;5.50;;;4.45;;
70592;SDS011;58294;42.988;20.338;2023-07-29T13:06:16;5.40;;;4.47;;
70592;SDS011;58294;42.988;20.338;2023-07-29T13:08:42;6.97;;;4.22;;
70592;SDS011;58294;42.988;20.338;2023-07-29T13:11:09;5.00;;;4.25;;
70592;SDS011;58294;42.988;20.338;2023-07-29T13:13:35;4.45;;;3.72;;
70592;SDS011;58294;42.988;20.338;2023-07-29T13:16:01;5.15;;;4.65;;
70592;SDS011;58294;42.988;20.338;2023-07-29T13:18:27;4.68;;;4.22;;
70592;SDS011;58294;42.988;20.338;2023-07-29T13:20:53;4.70;;;4.30;;
70592;SDS011;58294;42.988;20.338;2023-07-29T13:23:20;7.15;;;4.70;;
70592;SDS011;58294;42.988;20.338;2023-07-29T13:25:46;5.40;;;4.47;;
70592;SDS011;58294;42.988;20.338;2023-07-29T13:28:12;5.13;;;4.05;;
70592;SDS011;58294;42.988;20.338;2023-07-29T13:30:41;4.65;;;4.05;;
70592;SDS011;58294;42.988;20.338;2023-07-29T13:33:07;6.22;;;4.30;;
70592;SDS011;58294;42.988;20.338;2023-07-29T13:35:34;4.97;;;4.47;;
70592;SDS011;58294;42.988;20.338;2023-07-29T13:38:00;5.25;;;4.50;;
70592;SDS011;58294;42.988;20.338;2023-07-29T13:40:27;6.28;;;4.45;;
70592;SDS011;58294;42.988;20.338;2023-07-29T13:42:53;4.82;;;4.30;;
70592;SDS011;58294;42.988;20.338;2023-07-29T13:45:19;6.80;;;4.05;;
70592;SDS011;58294;42.988;20.338;2023-07-29T13:47:45;4.22;;;2.97;;
70592;SDS011;58294;42.988;20.338;2023-07-29T13:50:12;3.92;;;3.50;;
70592;SDS011;58294;42.988;20.338;2023-07-29T13:52:37;5.28;;;3.60;;
70592;SDS011;58294;42.988;20.338;2023-07-29T13:55:04;4.30;;;3.85;;
70592;SDS011;58294;42.988;20.338;2023-07-29T13:57:31;5.30;;;4.80;;
70592;SDS011;58294;42.988;20.338;2023-07-29T13:59:57;7.20;;;4.28;;
70592;SDS011;58294;42.988;20.338;2023-07-29T14:02:23;6.28;;;4.78;;
70592;SDS011;58294;42.988;20.338;2023-07-29T14:04:51;5.38;;;4.88;;
70592;SDS011;58294;42.988;20.338;2023-07-29T14:07:17;4.93;;;4.43;;
70592;SDS011;58294;42.988;20.338;2023-07-29T14:09:43;4.60;;;4.20;;
70592;SDS011;58294;42.988;20.338;2023-07-29T14:12:09;6.70;;;4.78;;
70592;SDS011;58294;42.988;20.338;2023-07-29T14:14:39;6.95;;;5.38;;
70592;SDS011;58294;42.988;20.338;2023-07-29T14:17:06;6.75;;;4.97;;
70592;SDS011;58294;42.988;20.338;2023-07-29T14:19:33;6.70;;;5.20;;
70592;SDS011;58294;42.988;20.338;2023-07-29T14:21:59;10.50;;;5.90;;
70592;SDS011;58294;42.988;20.338;2023-07-29T14:24:25;8.55;;;5.35;;
70592;SDS011;58294;42.988;20.338;2023-07-29T14:26:51;6.30;;;5.25;;
70592;SDS011;58294;42.988;20.338;2023-07-29T14:29:17;6.07;;;4.97;;
70592;SDS011;58294;42.988;20.338;2023-07-29T14:31:43;8.73;;;5.78;;
70592;SDS011;58294;42.988;20.338;2023-07-29T14:34:09;6.13;;;4.97;;
70592;SDS011;58294;42.988;20.338;2023-07-29T14:36:35;7.00;;;4.70;;
70592;SDS011;58294;42.988;20.338;2023-07-29T14:39:01;5.93;;;4.22;;
70592;SDS011;58294;42.988;20.338;2023-07-29T14:41:27;7.43;;;5.18;;
70592;SDS011;58294;42.988;20.338;2023-07-29T14:43:53;5.35;;;4.40;;
70592;SDS011;58294;42.988;20.338;2023-07-29T14:46:19;5.88;;;5.03;;
70592;SDS011;58294;42.988;20.338;2023-07-29T14:48:45;9.13;;;5.07;;
70592;SDS011;58294;42.988;20.338;2023-07-29T14:51:12;7.32;;;5.20;;
70592;SDS011;58294;42.988;20.338;2023-07-29T14:53:38;6.90;;;4.95;;
70592;SDS011;58294;42.988;20.338;2023-07-29T14:56:04;8.38;;;5.95;;
70592;SDS011;58294;42.988;20.338;2023-07-29T14:58:30;7.60;;;4.95;;
70592;SDS011;58294;42.988;20.338;2023-07-29T15:00:55;6.97;;;5.13;;